EGGP/LPL METAR and TAF weather

Enter ICAO airport designator
Station Type Date Time Source
EGGP METAR 2021/04/16 22:50 UTC NOAA

EGGP 162250Z 07004KT CAVOK 08/05 Q1031


Station Type Date Time Source
EGGP Decoded METAR 2021/04/16 22:50 UTC NOAA

Liverpool Airport , United Kingdom (EGGP) 53-20N 002-51W
Apr 16, 2021 - 06:50 PM EDT / 2021.04.16 2250 UTC
Wind: from the ENE (070 degrees) at 5 MPH (4 KT):0
Visibility: greater than 7 mile(s):0
Temperature: 46 F (8 C)
Dew Point: 41 F (5 C)
Relative Humidity: 81%
Pressure (altimeter): 30.45 in. Hg (1031 hPa)
ob: EGGP 162250Z 07004KT CAVOK 08/05 Q1031
cycle: 23

Station Type Date Time Source
EGGP TAF 2021/04/17 00:08 UTC NOAA

TAF EGGP 170101Z 1700/1724 CNL

Example: see airport list